Time;durP1;ratioP1;P1;durP2;ratioP2;P2;SDS_P1;SDS_P2;PMS_P1;PMS_P2;Temp;Humidity;BMP_temperature;BMP_pressure;BME280_temperature;BME280_humidity;BME280_pressure;Samples;Min_cycle;Max_cycle;Signal;HPM_P1;HPM_P2
2022/01/21 00:01:51;;;;;;;;;;;0.30;67.90;;;;;;5000547;28;20026;-87
2022/01/21 00:04:17;;;;;;;4.50;1.97;;;0.30;67.80;;;;;;4999714;28;19914;-88
2022/01/21 00:06:43;;;;;;;;;;;0.30;67.30;;;;;;5001773;28;20035;-88
2022/01/21 00:09:09;;;;;;;8.70;2.80;;;0.30;67.50;;;;;;4999901;28;19964;-87
2022/01/21 00:11:36;;;;;;;;;;;0.30;67.50;;;;;;5001562;28;20105;-87
2022/01/21 00:14:02;;;;;;;3.28;1.95;;;0.30;67.70;;;;;;5000742;28;19914;-88
2022/01/21 00:16:28;;;;;;;;;;;0.20;67.50;;;;;;4998632;28;20037;-87
2022/01/21 00:19:00;;;;;;;4.57;2.10;;;0.20;67.60;;;;;;4997462;28;19917;-86
2022/01/21 00:32:36;;;;;;;6.30;2.83;;;0.20;68.00;;;;;;5012469;28;20069;-85
2022/01/21 00:35:01;;;;;;;;;;;0.20;67.90;;;;;;5014771;28;20031;-86
2022/01/21 00:37:27;;;;;;;12.67;2.80;;;0.30;68.00;;;;;;5015848;28;20656;-85
2022/01/21 00:39:56;;;;;;;;;;;0.30;67.90;;;;;;5017512;28;20029;-87
2022/01/21 00:44:50;;;;;;;7.30;2.10;;;0.30;67.90;;;;;;5015790;28;20031;-86
2022/01/21 00:47:16;;;;;;;12.23;3.80;;;0.30;68.10;;;;;;5006063;28;20034;-86
2022/01/21 00:49:42;;;;;;;;;;;0.30;68.20;;;;;;5001412;28;20030;-86
2022/01/21 00:52:08;;;;;;;6.97;2.60;;;0.30;68.30;;;;;;4998366;28;20420;-86
2022/01/21 00:54:33;;;;;;;8.18;3.13;;;0.30;68.10;;;;;;4989009;28;20029;-86
2022/01/21 00:57:02;;;;;;;;;;;0.30;68.20;;;;;;4997233;28;20212;-87
2022/01/21 00:59:27;;;;;;;7.13;2.97;;;0.30;68.20;;;;;;4996277;28;19918;-86
2022/01/21 01:01:53;;;;;;;;;;;0.30;68.10;;;;;;4997104;28;20092;-86
2022/01/21 01:04:19;;;;;;;4.80;2.10;;;0.30;68.10;;;;;;4991434;28;19960;-86
2022/01/21 01:06:45;;;;;;;8.00;3.78;;;0.30;68.10;;;;;;4994290;28;20034;-86
2022/01/21 01:09:10;;;;;;;7.93;2.35;;;0.30;68.20;;;;;;4995778;28;20038;-86
2022/01/21 01:19:58;;;;;;;3.80;1.77;;;0.20;68.20;;;;;;4996535;28;20510;-85
2022/01/21 01:22:52;;;;;;;8.03;2.80;;;0.20;68.20;;;;;;4995076;28;20022;-85
2022/01/21 01:28:03;;;;;;;7.90;2.63;;;0.20;68.30;;;;;;4996501;28;20522;-85
2022/01/21 01:30:32;;;;;;;9.60;2.90;;;0.20;68.30;;;;;;4994427;28;20031;-85
2022/01/21 01:33:00;;;;;;;8.27;2.33;;;0.30;68.40;;;;;;4994484;28;20022;-85
2022/01/21 01:35:30;;;;;;;8.70;2.93;;;0.20;68.40;;;;;;4992871;28;20495;-84
2022/01/21 01:38:24;;;;;;;5.40;1.97;;;0.20;68.40;;;;;;4994292;28;20050;-86
2022/01/21 01:40:58;;;;;;;4.90;1.67;;;0.20;68.40;;;;;;4994577;28;20161;-86
2022/01/21 01:51:27;;;;;;;3.03;1.43;;;0.20;68.50;;;;;;4996588;28;20045;-85
2022/01/21 01:53:59;;;;;;;5.27;1.90;;;0.20;68.00;;;;;;4995958;28;20022;-85
2022/01/21 01:56:33;;;;;;;4.77;1.97;;;0.20;68.10;;;;;;4994036;28;20058;-86
2022/01/21 01:58:59;;;;;;;4.93;2.20;;;0.20;67.60;;;;;;4993752;28;20051;-85
2022/01/21 02:01:25;;;;;;;;;;;0.20;67.30;;;;;;4993773;28;20022;-85
2022/01/21 02:03:53;;;;;;;2.87;1.23;;;0.20;67.50;;;;;;4986760;28;19910;-85
2022/01/21 02:06:20;;;;;;;2.77;1.43;;;0.10;67.30;;;;;;4993579;28;20391;-86
2022/01/21 02:08:46;;;;;;;4.07;0.80;;;0.10;67.20;;;;;;4994453;28;20030;-86
2022/01/21 02:11:12;;;;;;;;;;;0.10;66.40;;;;;;4993949;28;20542;-86
2022/01/21 02:13:47;;;;;;;3.10;1.27;;;0.20;66.10;;;;;;5001632;28;19957;-86
2022/01/21 02:21:40;;;;;;;4.67;1.93;;;0.00;65.90;;;;;;4996485;28;20450;-85
2022/01/21 02:24:20;;;;;;;4.63;1.57;;;0.00;66.00;;;;;;4994493;28;20062;-85
2022/01/21 02:26:47;;;;;;;4.53;1.00;;;0.00;64.70;;;;;;4991044;28;20029;-85
2022/01/21 02:29:25;;;;;;;4.93;1.40;;;0.00;63.60;;;;;;4995494;28;20022;-85
2022/01/21 02:31:51;;;;;;;2.83;1.10;;;0.00;63.90;;;;;;4995193;28;20499;-86
2022/01/21 02:34:16;;;;;;;;;;;0.00;63.70;;;;;;4995564;28;20026;-86
2022/01/21 02:36:42;;;;;;;3.30;1.23;;;0.00;63.50;;;;;;4994992;28;19910;-85
2022/01/21 02:39:10;;;;;;;3.55;1.42;;;0.00;63.30;;;;;;4996929;28;20053;-85
2022/01/21 02:41:36;;;;;;;1.30;0.93;;;0.00;63.30;;;;;;4995034;28;20029;-85
2022/01/21 02:44:02;;;;;;;;;;;-3276.70;63.40;;;;;;4995513;28;20365;-85
2022/01/21 02:46:27;;;;;;;10.53;1.10;;;-3276.70;63.50;;;;;;4994905;28;19917;-86
2022/01/21 02:48:53;;;;;;;;;;;0.00;63.40;;;;;;4995367;28;20026;-85
2022/01/21 02:51:19;;;;;;;2.77;1.53;;;0.00;63.80;;;;;;4990527;28;19953;-85
2022/01/21 02:56:12;;;;;;;2.10;1.10;;;-3276.70;65.00;;;;;;4998885;28;19973;-85
2022/01/21 02:58:39;;;;;;;3.60;1.40;;;-3276.70;65.00;;;;;;4998368;28;20057;-85
2022/01/21 03:01:06;;;;;;;5.50;2.10;;;-3276.50;65.30;;;;;;4998743;28;20022;-84
2022/01/21 03:03:34;;;;;;;2.67;1.40;;;-3276.50;65.60;;;;;;4990101;28;20541;-84
2022/01/21 03:06:01;;;;;;;2.57;1.17;;;-3276.40;65.70;;;;;;4998191;28;20444;-85
2022/01/21 03:08:28;;;;;;;1.63;1.27;;;-3276.20;65.80;;;;;;4998982;28;20105;-85
2022/01/21 03:10:54;;;;;;;3.50;1.43;;;-3276.20;65.80;;;;;;4998385;28;20558;-85
2022/01/21 03:13:23;;;;;;;5.93;1.10;;;-3276.10;65.90;;;;;;4999772;28;20037;-86
2022/01/21 03:15:50;;;;;;;2.73;1.43;;;-3276.00;66.00;;;;;;4998760;28;20117;-86
2022/01/21 03:18:16;;;;;;;3.30;1.33;;;-3275.90;66.10;;;;;;4998184;28;20454;-85
2022/01/21 03:20:41;;;;;;;;;;;-3275.90;66.20;;;;;;4999210;28;20029;-85
2022/01/21 03:23:08;;;;;;;4.13;1.47;;;-3275.80;66.30;;;;;;4998230;28;20004;-86
2022/01/21 03:25:34;;;;;;;5.00;1.63;;;-3275.80;66.40;;;;;;4998588;28;20027;-86
2022/01/21 03:28:00;;;;;;;;;;;-3275.70;66.60;;;;;;4999257;28;20037;-86
2022/01/21 03:30:25;;;;;;;1.07;0.97;;;-3275.70;66.80;;;;;;4999063;28;19960;-86
2022/01/21 03:32:51;;;;;;;;;;;-3275.70;66.70;;;;;;4999137;28;20030;-86
2022/01/21 03:35:16;;;;;;;4.67;1.40;;;-3275.70;66.90;;;;;;4998202;28;19914;-86
2022/01/21 03:37:42;;;;;;;;;;;-3275.60;66.70;;;;;;4998029;28;20018;-85
2022/01/21 03:40:14;;;;;;;2.73;1.30;;;-3275.60;66.40;;;;;;4998372;28;19910;-85
2022/01/21 03:42:41;;;;;;;2.50;1.20;;;-3275.50;66.40;;;;;;5014643;28;20034;-86
2022/01/21 03:45:08;;;;;;;1.03;0.90;;;-3275.40;66.50;;;;;;4998211;28;20034;-86
2022/01/21 03:47:34;;;;;;;2.70;1.03;;;-3275.40;66.50;;;;;;4989085;28;20030;-86
2022/01/21 03:50:18;;;;;;;;;;;-3275.30;66.40;;;;;;4998217;28;20030;-86
2022/01/21 03:52:44;;;;;;;2.03;1.23;;;-3275.30;66.30;;;;;;4992140;28;20012;-86
2022/01/21 03:55:10;;;;;;;;;;;-3275.30;66.00;;;;;;4997080;28;20050;-85
2022/01/21 03:57:35;;;;;;;2.47;0.90;;;-3275.30;65.50;;;;;;4996365;28;19918;-85
2022/01/21 04:00:02;;;;;;;;;;;-3275.20;65.40;;;;;;4996079;28;20089;-85
2022/01/21 04:02:27;;;;;;;3.28;1.45;;;-3275.20;65.60;;;;;;5004984;28;19957;-85
2022/01/21 04:04:53;;;;;;;;;;;-3275.20;65.60;;;;;;4994569;28;20031;-85
2022/01/21 04:07:18;;;;;;;1.53;1.20;;;-3275.10;65.90;;;;;;4995719;28;19910;-86
2022/01/21 04:09:44;;;;;;;2.70;1.08;;;-3275.10;66.00;;;;;;4996193;28;20132;-86
2022/01/21 04:12:10;;;;;;;;;;;-3275.10;66.40;;;;;;4996172;28;20022;-86
2022/01/21 04:14:35;;;;;;;3.47;1.73;;;-3275.10;66.70;;;;;;4985122;28;20367;-86
2022/01/21 04:17:01;;;;;;;;;;;-3275.00;66.70;;;;;;4996385;28;20020;-86
2022/01/21 04:19:27;;;;;;;1.57;1.00;;;-3275.00;67.00;;;;;;4996517;28;19913;-86
2022/01/21 04:21:52;;;;;;;;;;;-3274.90;67.30;;;;;;4996323;28;20426;-84
2022/01/21 04:24:18;;;;;;;5.33;2.10;;;-3274.90;67.70;;;;;;4996605;28;19909;-85
2022/01/21 04:26:43;;;;;;;;;;;-3274.80;67.80;;;;;;5006428;28;20060;-86
2022/01/21 04:29:09;;;;;;;6.33;2.13;;;-3274.80;68.20;;;;;;5016128;28;19926;-86
2022/01/21 04:31:35;;;;;;;;;;;-3274.80;68.50;;;;;;5017017;28;20053;-83
2022/01/21 04:34:00;;;;;;;3.50;2.80;;;-3274.70;68.80;;;;;;5030401;28;19897;-86
2022/01/21 04:36:26;;;;;;;;;;;-3274.70;69.10;;;;;;5016028;28;20018;-86
2022/01/21 04:38:54;;;;;;;2.40;1.53;;;-3274.70;69.40;;;;;;5016167;28;19941;-87
2022/01/21 04:49:37;;;;;;;4.10;2.07;;;-3274.60;70.50;;;;;;5009285;28;20045;-86
2022/01/21 04:52:03;;;;;;;;;;;-3274.60;70.70;;;;;;4998232;28;20030;-86
2022/01/21 04:54:34;;;;;;;5.97;2.73;;;-3274.60;70.70;;;;;;4996503;28;19917;-85
2022/01/21 04:57:01;;;;;;;8.90;3.30;;;-3274.50;70.60;;;;;;4996213;28;20110;-86
2022/01/21 04:59:27;;;;;;;7.43;3.33;;;-3274.50;70.70;;;;;;4968487;28;1178528;-87
2022/01/21 05:01:53;;;;;;;;;;;-3274.40;70.80;;;;;;4997793;28;20080;-86
2022/01/21 05:04:27;;;;;;;2.17;1.73;;;-3274.40;70.80;;;;;;4996148;28;20259;-86
2022/01/21 05:06:54;;;;;;;4.90;2.27;;;-3274.40;70.60;;;;;;4996416;28;20058;-85
2022/01/21 05:09:28;;;;;;;13.60;3.90;;;-3274.40;70.60;;;;;;4995372;28;20030;-85
2022/01/21 05:11:55;;;;;;;5.77;1.77;;;-3274.40;70.50;;;;;;4995791;28;20407;-85
2022/01/21 05:14:35;;;;;;;4.07;2.03;;;-3274.50;70.40;;;;;;4994407;28;20062;-85
2022/01/21 05:17:05;;;;;;;3.63;2.30;;;-3274.50;70.10;;;;;;4995634;28;20033;-85
2022/01/21 05:19:30;;;;;;;5.57;2.40;;;-3274.50;70.00;;;;;;4995795;28;20046;-85
2022/01/21 05:21:59;;;;;;;;;;;-3274.50;70.00;;;;;;4996758;28;20015;-85
2022/01/21 05:24:29;;;;;;;6.17;2.50;;;-3274.50;69.90;;;;;;4995548;28;19916;-85
2022/01/21 05:26:58;;;;;;;1.93;1.27;;;-3274.50;69.60;;;;;;4997207;28;20124;-85
2022/01/21 05:29:26;;;;;;;5.87;2.83;;;-3274.50;69.50;;;;;;4995600;28;20502;-85
2022/01/21 05:31:52;;;;;;;2.93;1.27;;;-3274.50;69.60;;;;;;4995565;28;20057;-85
2022/01/21 05:34:18;;;;;;;;;;;-3274.50;69.60;;;;;;4996189;28;20054;-85
2022/01/21 05:36:44;;;;;;;4.47;1.93;;;-3274.60;69.60;;;;;;4996011;28;19913;-85
2022/01/21 05:39:10;;;;;;;2.80;1.77;;;-3274.70;69.30;;;;;;4990517;28;20015;-83
2022/01/21 05:41:37;;;;;;;5.47;1.83;;;-3274.70;69.20;;;;;;4994401;28;20034;-85
2022/01/21 05:44:09;;;;;;;3.33;1.77;;;-3274.80;69.10;;;;;;4995796;28;20029;-86
2022/01/21 05:49:06;;;;;;;9.77;2.73;;;-3274.90;68.90;;;;;;4996866;28;20030;-85
2022/01/21 05:51:32;;;;;;;;;;;-3275.00;68.70;;;;;;4996111;28;20364;-85
2022/01/21 05:54:00;;;;;;;3.47;2.83;;;-3275.10;68.70;;;;;;4995404;28;19913;-85
2022/01/21 05:56:27;;;;;;;6.97;2.77;;;-3275.10;68.40;;;;;;4994286;28;20476;-85
2022/01/21 05:58:53;;;;;;;11.67;4.27;;;-3275.20;68.50;;;;;;4994826;28;20038;-86
2022/01/21 06:01:18;;;;;;;;;;;-3275.20;68.40;;;;;;4996001;28;20121;-86
2022/01/21 06:03:44;;;;;;;12.07;4.43;;;-3275.30;68.40;;;;;;4995173;28;19914;-85
2022/01/21 06:06:10;;;;;;;;;;;-3275.40;68.10;;;;;;4995432;28;20034;-84
2022/01/21 06:08:38;;;;;;;23.60;7.50;;;-3275.40;68.40;;;;;;4993466;28;19910;-85
2022/01/21 06:11:06;;;;;;;10.53;4.67;;;-3275.50;68.40;;;;;;4994130;28;20360;-85
2022/01/21 06:13:32;;;;;;;12.77;4.87;;;-3275.50;68.70;;;;;;4995501;28;20018;-86
2022/01/21 06:15:59;;;;;;;;;;;-3275.60;68.80;;;;;;4987546;28;20424;-86
2022/01/21 06:18:27;;;;;;;7.80;3.60;;;-3275.60;69.40;;;;;;4994866;28;19921;-87
2022/01/21 06:20:58;;;;;;;32.17;11.97;;;-3275.60;69.90;;;;;;4994337;28;20058;-87
2022/01/21 06:23:24;;;;;;;18.47;5.70;;;-3275.60;70.10;;;;;;4991684;28;20026;-85
2022/01/21 06:25:50;;;;;;;;;;;-3275.60;70.30;;;;;;4991193;28;20018;-85
2022/01/21 06:28:53;;;;;;;14.17;5.10;;;-3275.60;70.40;;;;;;4994846;28;19978;-85
2022/01/21 06:31:19;;;;;;;7.60;3.53;;;-3275.60;70.40;;;;;;4997003;28;20037;-86
2022/01/21 06:33:44;;;;;;;;;;;-3275.60;70.30;;;;;;5000028;28;20048;-85
2022/01/21 06:36:11;;;;;;;4.33;2.20;;;-3275.70;70.70;;;;;;4997599;28;19910;-83
2022/01/21 06:38:36;;;;;;;6.40;2.90;;;-3275.70;70.50;;;;;;4998424;28;20027;-84
2022/01/21 06:41:02;;;;;;;;;;;-3275.70;70.60;;;;;;4999601;28;20042;-84
2022/01/21 06:43:28;;;;;;;6.63;3.30;;;-3275.70;70.60;;;;;;4999242;28;19917;-85
2022/01/21 06:45:53;;;;;;;;;;;-3275.80;70.50;;;;;;5001630;28;20124;-83
2022/01/21 06:48:19;;;;;;;3.80;1.83;;;-3275.80;70.70;;;;;;4989574;28;19910;-85
2022/01/21 06:50:48;;;;;;;5.03;2.55;;;-3275.80;70.70;;;;;;5006195;28;20037;-85
2022/01/21 06:53:14;;;;;;;8.40;4.63;;;-3275.90;71.80;;;;;;5000976;28;20034;-85
2022/01/21 06:55:39;;;;;;;;;;;-3275.80;72.20;;;;;;4998075;28;20085;-86
2022/01/21 06:58:05;;;;;;;2.97;2.00;;;-3275.80;72.60;;;;;;4998293;28;20000;-85
2022/01/21 07:00:31;;;;;;;6.60;3.90;;;-3275.80;72.70;;;;;;4998038;28;20026;-85
2022/01/21 07:02:57;;;;;;;;;;;-3275.80;72.80;;;;;;4998502;28;20471;-83
2022/01/21 07:05:25;;;;;;;6.07;3.97;;;-3275.90;72.90;;;;;;4994818;28;19960;-86
2022/01/21 07:07:51;;;;;;;12.73;3.97;;;-3275.90;72.70;;;;;;4995277;28;20033;-85
2022/01/21 07:10:17;;;;;;;13.40;3.70;;;-3275.90;72.90;;;;;;4996485;28;20060;-85
2022/01/21 07:12:43;;;;;;;;;;;-3275.90;73.10;;;;;;4990900;28;22018;-85
2022/01/21 07:15:19;;;;;;;7.28;2.80;;;-3276.00;73.10;;;;;;4996124;28;19917;-83
2022/01/21 07:17:45;;;;;;;9.33;3.97;;;-3276.00;73.30;;;;;;4995753;28;20030;-82
2022/01/21 07:20:12;;;;;;;6.93;3.80;;;-3276.00;74.00;;;;;;4996993;28;20022;-83
2022/01/21 07:22:38;;;;;;;9.50;5.30;;;-3275.90;74.30;;;;;;4996209;28;20026;-83
2022/01/21 07:25:05;;;;;;;7.00;3.60;;;-3275.90;74.80;;;;;;4997186;28;20034;-84
2022/01/21 07:27:33;;;;;;;2.17;1.73;;;-3275.90;74.90;;;;;;4996160;28;20027;-85
2022/01/21 07:30:00;;;;;;;5.17;3.20;;;-3275.90;75.60;;;;;;4987419;28;20046;-84
2022/01/21 07:32:25;;;;;;;;;;;-3275.90;75.70;;;;;;4996332;28;20018;-84
2022/01/21 07:34:51;;;;;;;8.33;3.50;;;-3275.90;75.70;;;;;;4995898;28;20378;-83
2022/01/21 07:37:16;;;;;;;;;;;-3276.00;75.40;;;;;;4996290;28;20026;-83
2022/01/21 07:39:42;;;;;;;6.20;3.40;;;-3276.00;75.60;;;;;;4995198;28;19913;-84
2022/01/21 07:42:08;;;;;;;;;;;-3276.00;75.50;;;;;;4995190;28;20026;-84
2022/01/21 07:44:34;;;;;;;7.07;3.23;;;-3276.00;75.90;;;;;;4996162;28;19910;-88
2022/01/21 07:47:00;;;;;;;12.10;6.93;;;-3276.00;76.10;;;;;;4998147;28;20026;-85
2022/01/21 07:49:25;;;;;;;;;;;-3276.00;76.10;;;;;;4995525;28;20030;-85
2022/01/21 07:51:51;;;;;;;15.07;6.73;;;-3276.00;76.30;;;;;;4997360;28;19975;-85
2022/01/21 07:54:17;;;;;;;;;;;-3276.00;76.20;;;;;;4996937;28;20091;-85
2022/01/21 07:56:42;;;;;;;4.57;2.50;;;-3276.00;76.50;;;;;;4993779;28;19956;-85
2022/01/21 07:59:10;;;;;;;;;;;-3276.10;76.30;;;;;;4989907;28;20038;-86
2022/01/21 08:01:36;;;;;;;7.85;3.58;;;-3276.10;76.40;;;;;;4995142;28;19914;-84
2022/01/21 08:04:01;;;;;;;;;;;-3276.20;76.30;;;;;;4997063;28;20173;-85
2022/01/21 08:06:27;;;;;;;8.60;4.00;;;-3276.20;76.40;;;;;;4994280;28;20371;-84
2022/01/21 08:08:57;;;;;;;;;;;-3276.20;76.30;;;;;;4993066;28;20102;-84
2022/01/21 08:11:23;;;;;;;6.70;3.07;;;-3276.20;76.30;;;;;;4995556;28;19913;-85
2022/01/21 08:13:49;;;;;;;;;;;-3276.20;75.80;;;;;;4996951;28;20015;-84
2022/01/21 08:16:14;;;;;;;21.87;8.07;;;-3276.20;76.00;;;;;;4990849;28;20307;-85
2022/01/21 08:18:40;;;;;;;17.63;7.07;;;-3276.20;76.00;;;;;;4996564;28;20022;-84
2022/01/21 08:21:05;;;;;;;9.13;5.00;;;-3276.20;76.10;;;;;;4994260;28;20018;-84
2022/01/21 08:23:31;;;;;;;21.52;10.52;;;-3276.30;76.10;;;;;;4990954;28;20018;-84
2022/01/21 08:25:57;;;;;;;;;;;-3276.30;76.30;;;;;;4996977;28;20022;-84
2022/01/21 08:28:22;;;;;;;15.60;7.33;;;-3276.30;75.80;;;;;;5000561;28;19941;-84
2022/01/21 08:30:48;;;;;;;19.52;8.10;;;-3276.40;75.80;;;;;;5010685;28;20026;-84
2022/01/21 08:33:14;;;;;;;;;;;-3276.40;76.00;;;;;;5016483;28;20077;-84
2022/01/21 08:35:40;;;;;;;10.23;4.10;;;-3276.40;76.10;;;;;;5017300;28;19902;-86
2022/01/21 08:38:05;;;;;;;;;;;-3276.50;75.50;;;;;;5018275;28;20010;-83
2022/01/21 08:40:32;;;;;;;16.43;7.70;;;-3276.50;75.80;;;;;;5016980;28;19973;-84
2022/01/21 08:42:58;;;;;;;13.37;5.93;;;-3276.50;75.80;;;;;;5002100;28;20034;-86
2022/01/21 08:45:24;;;;;;;14.40;5.77;;;-3276.50;76.10;;;;;;5016305;28;20467;-85
2022/01/21 08:47:50;;;;;;;6.73;3.87;;;-3276.50;76.10;;;;;;4989697;28;20068;-82
2022/01/21 08:50:18;;;;;;;10.67;4.60;;;-3276.60;76.40;;;;;;5005023;28;20074;-80
2022/01/21 08:52:46;;;;;;;12.93;5.60;;;-3276.70;76.20;;;;;;5000257;28;20030;-81
2022/01/21 08:55:14;;;;;;;13.10;4.33;;;-3276.70;76.30;;;;;;4994754;28;20492;-81
2022/01/21 08:57:43;;;;;;;8.23;3.60;;;-3276.70;76.20;;;;;;4993995;28;20022;-81
2022/01/21 09:00:12;;;;;;;10.43;5.20;;;0.00;76.40;;;;;;4995434;28;20046;-84
2022/01/21 09:02:38;;;;;;;9.33;4.67;;;0.00;76.30;;;;;;4994399;28;20113;-81
2022/01/21 09:05:03;;;;;;;;;;;0.00;76.20;;;;;;4991290;28;20058;-79
2022/01/21 09:07:29;;;;;;;6.87;2.53;;;0.00;75.80;;;;;;4991397;28;19913;-80
2022/01/21 09:09:55;;;;;;;11.43;4.25;;;0.00;75.70;;;;;;4992686;28;20053;-80
2022/01/21 09:12:20;;;;;;;7.90;4.50;;;0.00;75.90;;;;;;4988084;28;20050;-80
2022/01/21 09:14:46;;;;;;;;;;;0.00;76.00;;;;;;4994144;28;20096;-80
2022/01/21 09:17:12;;;;;;;12.23;6.03;;;0.10;76.20;;;;;;4992487;28;19960;-80
2022/01/21 09:19:38;;;;;;;7.15;3.67;;;0.10;76.10;;;;;;4992663;28;20037;-79
2022/01/21 09:22:03;;;;;;;;;;;0.20;76.20;;;;;;4992688;28;20029;-81
2022/01/21 09:24:33;;;;;;;20.60;5.40;;;0.20;76.40;;;;;;4992319;28;20397;-81
2022/01/21 09:27:00;;;;;;;11.13;4.27;;;0.20;75.90;;;;;;4992465;28;20383;-81
2022/01/21 09:29:26;;;;;;;9.43;5.33;;;0.20;76.10;;;;;;4989503;28;20022;-81
2022/01/21 09:31:51;;;;;;;;;;;0.20;76.10;;;;;;4990667;28;20373;-81
2022/01/21 09:34:17;;;;;;;7.43;4.27;;;0.20;76.20;;;;;;4992563;28;20386;-81
2022/01/21 09:36:42;;;;;;;;;;;0.20;76.10;;;;;;4992467;28;20550;-80
2022/01/21 09:39:08;;;;;;;15.27;7.17;;;0.20;76.20;;;;;;4978715;28;20009;-80
2022/01/21 09:41:33;;;;;;;;;;;0.20;76.20;;;;;;4993138;28;20072;-79
2022/01/21 09:44:02;;;;;;;10.13;4.40;;;0.20;76.30;;;;;;4992478;28;19989;-80
2022/01/21 09:46:36;;;;;;;13.63;6.77;;;0.30;76.30;;;;;;4993167;28;20058;-80
2022/01/21 09:49:25;;;;;;;20.70;5.77;;;0.30;76.40;;;;;;4986228;28;20030;-82
2022/01/21 09:52:11;;;;;;;15.57;3.07;;;0.30;76.30;;;;;;4992779;28;20493;-83
2022/01/21 09:54:39;;;;;;;14.97;5.60;;;0.40;76.60;;;;;;4993179;28;20034;-82
2022/01/21 09:57:07;;;;;;;12.67;6.27;;;0.60;76.30;;;;;;4993275;28;20027;-83
2022/01/21 09:59:35;;;;;;;13.27;5.13;;;0.60;76.40;;;;;;4988907;28;20045;-83
2022/01/21 10:02:03;;;;;;;7.33;3.13;;;0.70;76.40;;;;;;4994480;28;20566;-83
2022/01/21 10:04:32;;;;;;;12.63;4.57;;;0.80;76.20;;;;;;4993097;28;20049;-83
2022/01/21 10:06:58;;;;;;;8.77;4.03;;;0.90;75.80;;;;;;4993521;28;20026;-83
2022/01/21 10:09:25;;;;;;;11.30;5.73;;;0.90;75.50;;;;;;4993109;28;20029;-82
2022/01/21 10:11:52;;;;;;;15.87;6.80;;;1.00;75.50;;;;;;4992593;28;20022;-83
2022/01/21 10:14:23;;;;;;;11.87;4.33;;;1.10;75.00;;;;;;4991461;28;20026;-82
2022/01/21 10:16:50;;;;;;;25.30;8.07;;;1.10;74.30;;;;;;4993500;28;20399;-82
2022/01/21 10:19:48;;;;;;;14.20;4.77;;;1.10;74.20;;;;;;4993481;28;20006;-83
2022/01/21 10:22:21;;;;;;;12.73;5.10;;;1.20;74.10;;;;;;4994262;28;20038;-83
2022/01/21 10:24:59;;;;;;;6.00;3.70;;;1.30;74.00;;;;;;4989696;28;20030;-83
2022/01/21 10:27:28;;;;;;;4.77;3.30;;;1.40;73.20;;;;;;4993958;28;20029;-83
2022/01/21 10:29:54;;;;;;;7.77;3.30;;;1.50;72.70;;;;;;4993968;28;20045;-82
2022/01/21 10:32:39;;;;;;;5.47;3.30;;;1.60;72.30;;;;;;4993068;28;20113;-82
2022/01/21 10:35:33;;;;;;;10.50;5.37;;;1.70;72.00;;;;;;4991461;28;20104;-82
2022/01/21 10:38:16;;;;;;;13.90;6.50;;;1.80;71.70;;;;;;4991684;28;20022;-83
2022/01/21 10:40:42;;;;;;;8.47;3.33;;;1.80;71.30;;;;;;4997770;28;20028;-83
2022/01/21 10:43:12;;;;;;;;;;;1.90;71.30;;;;;;4995920;28;20022;-83
2022/01/21 10:45:56;;;;;;;16.47;5.97;;;1.90;70.50;;;;;;4997895;28;19961;-81
2022/01/21 10:48:50;;;;;;;16.77;5.93;;;2.00;70.40;;;;;;5008485;28;20023;-82
2022/01/21 10:51:25;;;;;;;5.57;3.63;;;2.00;69.30;;;;;;4995261;28;20030;-82
2022/01/21 10:53:55;;;;;;;5.37;2.53;;;1.90;69.70;;;;;;4993065;28;20022;-82
2022/01/21 10:56:22;;;;;;;6.00;3.13;;;2.00;68.90;;;;;;4989217;28;20023;-82
2022/01/21 10:58:51;;;;;;;7.77;4.03;;;2.00;69.60;;;;;;4995715;28;20049;-83
2022/01/21 11:01:22;;;;;;;12.53;5.30;;;2.10;69.10;;;;;;4999274;28;20097;-83
2022/01/21 11:04:08;;;;;;;9.93;3.53;;;2.10;69.40;;;;;;4992385;28;20030;-82
2022/01/21 11:06:49;;;;;;;16.80;7.00;;;2.30;68.70;;;;;;4992580;28;20015;-82
2022/01/21 11:09:26;;;;;;;9.20;2.57;;;2.20;68.00;;;;;;4999367;28;20065;-88
2022/01/21 11:12:15;;;;;;;14.03;4.80;;;2.10;67.70;;;;;;5002461;28;20030;-88
2022/01/21 11:15:00;;;;;;;12.30;3.37;;;1.90;68.20;;;;;;5001398;28;20027;-89
2022/01/21 11:17:26;;;;;;;11.37;4.73;;;1.80;68.70;;;;;;5007091;28;20026;-88
2022/01/21 11:20:03;;;;;;;;;;;1.80;69.20;;;;;;5002878;28;20046;-87
2022/01/21 11:22:29;;;;;;;5.95;2.63;;;1.80;70.30;;;;;;4999649;28;19964;-86
2022/01/21 11:24:59;;;;;;;6.83;3.07;;;1.80;70.80;;;;;;4998622;28;20033;-86
2022/01/21 11:27:25;;;;;;;8.97;4.10;;;1.70;71.10;;;;;;4999321;28;20065;-84
2022/01/21 11:29:52;;;;;;;;;;;1.70;71.20;;;;;;4997007;28;20399;-85
2022/01/21 11:32:19;;;;;;;9.90;3.43;;;1.80;71.70;;;;;;4996900;28;19913;-85
2022/01/21 11:34:45;;;;;;;12.17;4.30;;;1.80;71.60;;;;;;4997740;28;20069;-85
2022/01/21 11:37:12;;;;;;;18.77;4.80;;;1.80;71.60;;;;;;5012571;28;20379;-85
2022/01/21 11:39:37;;;;;;;11.50;5.07;;;1.90;71.80;;;;;;4998041;28;20110;-86
2022/01/21 11:42:04;;;;;;;;;;;1.90;72.00;;;;;;4997740;28;20062;-85
2022/01/21 11:44:33;;;;;;;6.47;2.70;;;2.00;71.90;;;;;;4996773;28;19910;-86
2022/01/21 11:49:41;;;;;;;5.03;2.20;;;1.90;71.80;;;;;;4998637;28;20045;-86
2022/01/21 11:52:15;;;;;;;13.77;4.47;;;1.80;71.80;;;;;;4997281;28;20049;-86
2022/01/21 11:54:42;;;;;;;7.23;2.77;;;1.80;71.80;;;;;;4997072;28;20105;-86
2022/01/21 11:57:10;;;;;;;9.83;3.97;;;1.60;72.70;;;;;;4997420;28;20436;-86
2022/01/21 11:59:53;;;;;;;11.37;4.43;;;1.50;73.10;;;;;;4996542;28;20582;-86
2022/01/21 12:02:23;;;;;;;7.23;3.03;;;1.30;73.30;;;;;;4993220;28;20034;-87
2022/01/21 12:04:57;;;;;;;7.40;3.83;;;1.20;73.60;;;;;;4996862;28;20061;-86
2022/01/21 12:07:35;;;;;;;21.43;5.40;;;1.00;74.00;;;;;;4996397;28;20026;-86
2022/01/21 12:10:08;;;;;;;10.17;3.27;;;0.80;74.40;;;;;;4997445;28;20026;-86
2022/01/21 12:20:55;;;;;;;15.00;4.90;;;1.00;75.30;;;;;;4998499;28;20022;-87
2022/01/21 12:23:24;;;;;;;16.27;6.43;;;0.90;75.40;;;;;;4997436;28;20407;-86
2022/01/21 12:26:08;;;;;;;10.03;4.43;;;1.20;75.80;;;;;;4997050;28;20027;-85
2022/01/21 12:28:34;;;;;;;10.50;3.93;;;1.30;75.40;;;;;;4995002;28;20502;-85
2022/01/21 12:31:00;;;;;;;15.10;4.97;;;1.30;75.30;;;;;;5006394;28;20065;-86
2022/01/21 12:33:48;;;;;;;;;;;1.40;74.90;;;;;;5016319;28;20026;-85
2022/01/21 12:36:14;;;;;;;17.27;4.60;;;1.60;75.00;;;;;;5003929;28;19906;-85
2022/01/21 12:41:17;;;;;;;9.93;3.23;;;1.80;72.70;;;;;;5018579;28;19945;-86
2022/01/21 12:43:47;;;;;;;10.83;4.23;;;1.60;72.90;;;;;;5029909;28;20041;-86
2022/01/21 12:46:38;;;;;;;19.53;5.80;;;1.50;73.30;;;;;;5010901;28;20030;-85
2022/01/21 12:49:33;;;;;;;20.67;8.50;;;1.40;73.70;;;;;;5012298;28;20026;-86
2022/01/21 12:59:07;;;;;;;5.00;2.63;;;1.20;73.10;;;;;;4939114;29;20490;-86
2022/01/21 13:01:39;;;;;;;12.30;5.30;;;1.00;73.70;;;;;;4897142;29;20061;-86
2022/01/21 13:04:28;;;;;;;13.00;3.73;;;0.80;74.30;;;;;;4924764;29;20359;-86
2022/01/21 13:07:03;;;;;;;21.87;7.13;;;0.70;74.80;;;;;;4995120;28;20046;-87
2022/01/21 13:10:01;;;;;;;11.13;4.27;;;0.60;75.20;;;;;;4994818;28;20027;-86
2022/01/21 13:15:38;;;;;;;7.40;3.60;;;0.40;75.90;;;;;;4987190;28;20031;-86
2022/01/21 13:18:07;;;;;;;20.37;7.03;;;0.40;75.90;;;;;;4996845;28;20042;-86
2022/01/21 13:20:36;;;;;;;9.80;3.80;;;0.30;75.90;;;;;;4975321;28;20037;-86
2022/01/21 13:23:03;;;;;;;14.83;4.20;;;0.30;76.10;;;;;;4988579;28;20058;-85
2022/01/21 13:25:31;;;;;;;15.00;5.47;;;0.40;76.00;;;;;;4995605;28;20030;-84
2022/01/21 13:27:58;;;;;;;4.97;2.47;;;0.50;76.10;;;;;;4994772;28;20052;-83
2022/01/21 13:30:28;;;;;;;12.50;5.07;;;0.60;76.00;;;;;;4994439;28;20034;-84
2022/01/21 13:33:12;;;;;;;12.07;4.10;;;0.60;75.70;;;;;;4993497;28;20120;-84
2022/01/21 13:35:43;;;;;;;16.83;5.97;;;0.70;74.90;;;;;;4992819;28;20030;-84
2022/01/21 13:38:12;;;;;;;6.93;3.67;;;0.60;74.80;;;;;;4992647;28;20122;-84
2022/01/21 13:40:55;;;;;;;14.57;5.43;;;0.60;74.80;;;;;;4993217;28;20113;-84
2022/01/21 13:43:27;;;;;;;5.63;1.67;;;0.50;74.60;;;;;;4991743;28;20050;-84
2022/01/21 13:45:56;;;;;;;14.93;5.07;;;0.70;74.30;;;;;;4993071;28;20510;-85
2022/01/21 13:48:25;;;;;;;8.27;3.83;;;0.80;74.00;;;;;;5008874;28;20030;-86
2022/01/21 13:50:52;;;;;;;6.53;3.27;;;1.00;73.60;;;;;;4991431;28;20027;-86
2022/01/21 13:53:19;;;;;;;7.37;3.53;;;1.20;71.90;;;;;;4998576;28;20026;-86
2022/01/21 13:55:57;;;;;;;3.87;1.70;;;1.20;71.40;;;;;;4989853;28;20075;-86
2022/01/21 13:58:27;;;;;;;9.10;3.67;;;1.20;71.30;;;;;;5007178;28;20037;-86
2022/01/21 14:01:10;;;;;;;6.07;2.67;;;1.10;71.20;;;;;;4993596;28;20073;-88
2022/01/21 14:03:41;;;;;;;9.60;3.97;;;1.00;71.20;;;;;;4993386;28;20061;-89
2022/01/21 14:06:08;;;;;;;3.40;1.73;;;0.90;71.20;;;;;;4993988;28;20026;-89
2022/01/21 14:08:40;;;;;;;5.80;2.60;;;0.80;71.90;;;;;;4993871;28;20499;-89
2022/01/21 14:11:07;;;;;;;6.23;2.40;;;0.60;72.80;;;;;;4994071;28;20091;-89
2022/01/21 14:14:01;;;;;;;6.57;3.03;;;0.40;73.40;;;;;;4993680;28;20102;-88
2022/01/21 14:16:43;;;;;;;;;;;;;;;;;;;;;
2022/01/21 14:19:10;;;;;;;20.80;5.43;;;0.20;74.30;;;;;;5000108;28;20117;-91